Terminal Aerodrome Forecast
Issued by NWS Paducah, KY

Home | Current Version | Previous Version | Text Only | Print | Product List | Glossary On
Versions: 1 2 3 4 5 6 7 8 9 10 11 12 13 14 15 16 17 18 19 20 21 22
000
FTUS43 KPAH 192324
TAFEVV
TAF
KEVV 192324Z 2000/2024 22010KT P6SM OVC025
      TEMPO 2000/2001 5SM -SHRA BR BKN010
     FM200400 22008KT P6SM VCSH OVC060
      TEMPO 2005/2009 3SM -TSRA BR BKN035CB
     FM201100 25009KT 4SM BR SCT025 OVC035
     FM201400 26013G23KT P6SM BKN050
     FM202200 27010G18KT P6SM SCT050=

USA.gov is the U.S. government's official web portal to all federal, state and local government web resources and services.